sensor_id;sensor_type;location;lat;lon;timestamp;P1;durP1;ratioP1;P2;durP2;ratioP2
65096;SDS011;51686;46.758;4.356;2023-02-15T00:02:32;14.45;;;6.43;;
65096;SDS011;51686;46.758;4.356;2023-02-15T00:05:20;14.55;;;7.22;;
65096;SDS011;51686;46.758;4.356;2023-02-15T00:08:07;14.80;;;6.28;;
65096;SDS011;51686;46.758;4.356;2023-02-15T00:11:08;15.52;;;7.10;;
65096;SDS011;51686;46.758;4.356;2023-02-15T00:13:59;15.73;;;6.60;;
65096;SDS011;51686;46.758;4.356;2023-02-15T00:16:59;16.80;;;7.07;;
65096;SDS011;51686;46.758;4.356;2023-02-15T00:19:48;13.20;;;6.07;;
65096;SDS011;51686;46.758;4.356;2023-02-15T00:22:36;14.45;;;6.60;;
65096;SDS011;51686;46.758;4.356;2023-02-15T00:25:23;16.55;;;6.82;;
65096;SDS011;51686;46.758;4.356;2023-02-15T00:28:13;14.93;;;7.05;;
65096;SDS011;51686;46.758;4.356;2023-02-15T00:31:09;16.38;;;7.20;;
65096;SDS011;51686;46.758;4.356;2023-02-15T00:36:59;14.52;;;6.10;;
65096;SDS011;51686;46.758;4.356;2023-02-15T00:39:47;13.65;;;5.97;;
65096;SDS011;51686;46.758;4.356;2023-02-15T00:42:38;14.95;;;6.43;;
65096;SDS011;51686;46.758;4.356;2023-02-15T00:45:27;13.90;;;6.30;;
65096;SDS011;51686;46.758;4.356;2023-02-15T00:48:16;16.75;;;7.90;;
65096;SDS011;51686;46.758;4.356;2023-02-15T00:51:09;16.35;;;7.38;;
65096;SDS011;51686;46.758;4.356;2023-02-15T00:54:18;14.53;;;5.90;;
65096;SDS011;51686;46.758;4.356;2023-02-15T00:57:15;13.38;;;6.13;;
65096;SDS011;51686;46.758;4.356;2023-02-15T01:00:05;14.80;;;6.50;;
65096;SDS011;51686;46.758;4.356;2023-02-15T01:03:03;16.60;;;7.70;;
65096;SDS011;51686;46.758;4.356;2023-02-15T01:06:02;15.23;;;7.15;;
65096;SDS011;51686;46.758;4.356;2023-02-15T01:09:00;15.10;;;6.80;;
65096;SDS011;51686;46.758;4.356;2023-02-15T01:11:52;15.43;;;6.82;;
65096;SDS011;51686;46.758;4.356;2023-02-15T01:14:40;14.05;;;6.18;;
65096;SDS011;51686;46.758;4.356;2023-02-15T01:17:37;13.57;;;5.90;;
65096;SDS011;51686;46.758;4.356;2023-02-15T01:20:44;14.43;;;6.07;;
65096;SDS011;51686;46.758;4.356;2023-02-15T01:23:46;15.68;;;6.97;;
65096;SDS011;51686;46.758;4.356;2023-02-15T01:26:39;14.50;;;6.15;;
65096;SDS011;51686;46.758;4.356;2023-02-15T01:29:26;15.10;;;6.32;;
65096;SDS011;51686;46.758;4.356;2023-02-15T01:32:14;14.40;;;6.25;;
65096;SDS011;51686;46.758;4.356;2023-02-15T01:35:11;15.50;;;6.30;;
65096;SDS011;51686;46.758;4.356;2023-02-15T01:38:20;16.25;;;7.38;;
65096;SDS011;51686;46.758;4.356;2023-02-15T01:41:19;14.70;;;6.28;;
65096;SDS011;51686;46.758;4.356;2023-02-15T01:48:02;15.15;;;6.53;;
65096;SDS011;51686;46.758;4.356;2023-02-15T01:51:18;15.88;;;6.82;;
65096;SDS011;51686;46.758;4.356;2023-02-15T01:54:17;13.85;;;6.10;;
65096;SDS011;51686;46.758;4.356;2023-02-15T01:57:19;15.43;;;6.28;;
65096;SDS011;51686;46.758;4.356;2023-02-15T02:00:21;13.68;;;5.90;;
65096;SDS011;51686;46.758;4.356;2023-02-15T02:03:15;14.55;;;5.97;;
65096;SDS011;51686;46.758;4.356;2023-02-15T02:06:08;14.88;;;5.93;;
65096;SDS011;51686;46.758;4.356;2023-02-15T02:08:58;13.20;;;5.80;;
65096;SDS011;51686;46.758;4.356;2023-02-15T02:11:55;15.88;;;6.57;;
65096;SDS011;51686;46.758;4.356;2023-02-15T02:14:54;13.23;;;6.07;;
65096;SDS011;51686;46.758;4.356;2023-02-15T02:27:18;16.55;;;6.90;;
65096;SDS011;51686;46.758;4.356;2023-02-15T02:30:54;14.98;;;6.70;;
65096;SDS011;51686;46.758;4.356;2023-02-15T02:37:23;14.88;;;6.65;;
65096;SDS011;51686;46.758;4.356;2023-02-15T02:40:27;14.65;;;5.82;;
65096;SDS011;51686;46.758;4.356;2023-02-15T02:43:51;13.40;;;5.75;;
65096;SDS011;51686;46.758;4.356;2023-02-15T02:47:02;15.48;;;6.88;;
65096;SDS011;51686;46.758;4.356;2023-02-15T02:50:11;14.88;;;6.50;;
65096;SDS011;51686;46.758;4.356;2023-02-15T02:53:27;14.48;;;6.45;;
65096;SDS011;51686;46.758;4.356;2023-02-15T02:56:21;13.52;;;5.80;;
65096;SDS011;51686;46.758;4.356;2023-02-15T02:59:40;13.93;;;5.95;;
65096;SDS011;51686;46.758;4.356;2023-02-15T03:02:39;14.10;;;6.07;;
65096;SDS011;51686;46.758;4.356;2023-02-15T03:05:36;14.13;;;6.30;;
65096;SDS011;51686;46.758;4.356;2023-02-15T03:08:40;15.80;;;6.80;;
65096;SDS011;51686;46.758;4.356;2023-02-15T03:11:44;14.20;;;6.82;;
65096;SDS011;51686;46.758;4.356;2023-02-15T03:14:55;14.82;;;6.05;;
65096;SDS011;51686;46.758;4.356;2023-02-15T03:18:20;13.02;;;6.28;;
65096;SDS011;51686;46.758;4.356;2023-02-15T03:21:43;14.38;;;6.60;;
65096;SDS011;51686;46.758;4.356;2023-02-15T03:25:10;15.63;;;6.63;;
65096;SDS011;51686;46.758;4.356;2023-02-15T03:28:33;13.07;;;5.38;;
65096;SDS011;51686;46.758;4.356;2023-02-15T03:31:27;13.98;;;6.68;;
65096;SDS011;51686;46.758;4.356;2023-02-15T03:34:22;14.95;;;6.32;;
65096;SDS011;51686;46.758;4.356;2023-02-15T03:37:22;15.75;;;7.10;;
65096;SDS011;51686;46.758;4.356;2023-02-15T03:40:44;15.50;;;6.53;;
65096;SDS011;51686;46.758;4.356;2023-02-15T03:44:02;14.15;;;6.28;;
65096;SDS011;51686;46.758;4.356;2023-02-15T03:47:17;15.20;;;6.07;;
65096;SDS011;51686;46.758;4.356;2023-02-15T03:50:29;14.07;;;5.90;;
65096;SDS011;51686;46.758;4.356;2023-02-15T03:53:42;14.55;;;6.30;;
65096;SDS011;51686;46.758;4.356;2023-02-15T03:56:41;14.32;;;6.05;;
65096;SDS011;51686;46.758;4.356;2023-02-15T03:59:50;13.85;;;6.10;;
65096;SDS011;51686;46.758;4.356;2023-02-15T04:06:37;13.27;;;5.90;;
65096;SDS011;51686;46.758;4.356;2023-02-15T04:09:40;13.90;;;6.30;;
65096;SDS011;51686;46.758;4.356;2023-02-15T04:12:58;13.95;;;5.95;;
65096;SDS011;51686;46.758;4.356;2023-02-15T04:15:53;13.88;;;6.10;;
65096;SDS011;51686;46.758;4.356;2023-02-15T04:18:55;15.07;;;6.30;;
65096;SDS011;51686;46.758;4.356;2023-02-15T04:22:07;14.90;;;6.43;;
65096;SDS011;51686;46.758;4.356;2023-02-15T04:25:18;16.00;;;7.20;;
65096;SDS011;51686;46.758;4.356;2023-02-15T04:28:20;14.13;;;6.10;;
65096;SDS011;51686;46.758;4.356;2023-02-15T04:34:36;13.98;;;5.60;;
65096;SDS011;51686;46.758;4.356;2023-02-15T04:37:31;14.48;;;6.10;;
65096;SDS011;51686;46.758;4.356;2023-02-15T04:40:22;13.85;;;5.95;;
65096;SDS011;51686;46.758;4.356;2023-02-15T04:43:16;15.05;;;6.90;;
65096;SDS011;51686;46.758;4.356;2023-02-15T04:46:09;14.65;;;6.97;;
65096;SDS011;51686;46.758;4.356;2023-02-15T04:49:12;14.65;;;6.00;;
65096;SDS011;51686;46.758;4.356;2023-02-15T04:52:12;14.77;;;6.38;;
65096;SDS011;51686;46.758;4.356;2023-02-15T04:55:05;14.38;;;6.20;;
65096;SDS011;51686;46.758;4.356;2023-02-15T04:57:58;13.93;;;6.22;;
65096;SDS011;51686;46.758;4.356;2023-02-15T05:00:55;13.27;;;5.90;;
65096;SDS011;51686;46.758;4.356;2023-02-15T05:03:50;15.77;;;6.70;;
65096;SDS011;51686;46.758;4.356;2023-02-15T05:07:02;14.73;;;6.30;;
65096;SDS011;51686;46.758;4.356;2023-02-15T05:10:04;14.27;;;6.05;;
65096;SDS011;51686;46.758;4.356;2023-02-15T05:13:13;13.82;;;6.47;;
65096;SDS011;51686;46.758;4.356;2023-02-15T05:16:15;17.05;;;6.93;;
65096;SDS011;51686;46.758;4.356;2023-02-15T05:19:36;13.70;;;6.20;;
65096;SDS011;51686;46.758;4.356;2023-02-15T05:22:28;15.50;;;6.75;;
65096;SDS011;51686;46.758;4.356;2023-02-15T05:25:26;14.80;;;6.88;;
65096;SDS011;51686;46.758;4.356;2023-02-15T05:28:39;15.10;;;6.68;;
65096;SDS011;51686;46.758;4.356;2023-02-15T05:31:34;15.88;;;6.90;;
65096;SDS011;51686;46.758;4.356;2023-02-15T05:34:26;12.20;;;5.82;;
65096;SDS011;51686;46.758;4.356;2023-02-15T05:37:21;14.27;;;6.50;;
65096;SDS011;51686;46.758;4.356;2023-02-15T05:40:12;14.18;;;6.03;;
65096;SDS011;51686;46.758;4.356;2023-02-15T05:43:03;13.60;;;5.75;;
65096;SDS011;51686;46.758;4.356;2023-02-15T05:45:55;12.82;;;5.55;;
65096;SDS011;51686;46.758;4.356;2023-02-15T05:49:00;17.92;;;7.57;;
65096;SDS011;51686;46.758;4.356;2023-02-15T05:51:53;15.75;;;7.30;;
65096;SDS011;51686;46.758;4.356;2023-02-15T05:54:48;15.52;;;6.75;;
65096;SDS011;51686;46.758;4.356;2023-02-15T05:58:21;14.30;;;6.45;;
65096;SDS011;51686;46.758;4.356;2023-02-15T06:02:33;14.83;;;6.30;;
65096;SDS011;51686;46.758;4.356;2023-02-15T06:05:52;15.00;;;6.63;;
65096;SDS011;51686;46.758;4.356;2023-02-15T06:11:31;14.80;;;6.13;;
65096;SDS011;51686;46.758;4.356;2023-02-15T06:19:30;17.55;;;6.97;;
65096;SDS011;51686;46.758;4.356;2023-02-15T06:22:20;14.23;;;6.07;;
65096;SDS011;51686;46.758;4.356;2023-02-15T06:25:13;15.63;;;6.35;;
65096;SDS011;51686;46.758;4.356;2023-02-15T06:28:05;14.50;;;5.88;;
65096;SDS011;51686;46.758;4.356;2023-02-15T06:30:55;14.63;;;6.43;;
65096;SDS011;51686;46.758;4.356;2023-02-15T06:37:35;16.55;;;6.63;;
65096;SDS011;51686;46.758;4.356;2023-02-15T06:40:52;14.60;;;5.93;;
65096;SDS011;51686;46.758;4.356;2023-02-15T06:43:54;16.35;;;7.18;;
65096;SDS011;51686;46.758;4.356;2023-02-15T06:46:44;19.80;;;7.93;;
65096;SDS011;51686;46.758;4.356;2023-02-15T06:49:31;19.55;;;8.40;;
65096;SDS011;51686;46.758;4.356;2023-02-15T06:52:27;19.13;;;8.15;;
65096;SDS011;51686;46.758;4.356;2023-02-15T06:55:30;20.15;;;8.18;;
65096;SDS011;51686;46.758;4.356;2023-02-15T06:58:26;19.15;;;8.30;;
65096;SDS011;51686;46.758;4.356;2023-02-15T07:01:22;18.33;;;7.38;;
65096;SDS011;51686;46.758;4.356;2023-02-15T07:04:15;17.83;;;7.60;;
65096;SDS011;51686;46.758;4.356;2023-02-15T07:07:10;18.35;;;7.75;;
65096;SDS011;51686;46.758;4.356;2023-02-15T07:09:57;17.38;;;7.25;;
65096;SDS011;51686;46.758;4.356;2023-02-15T07:12:44;17.30;;;7.88;;
65096;SDS011;51686;46.758;4.356;2023-02-15T07:15:36;21.67;;;8.75;;
65096;SDS011;51686;46.758;4.356;2023-02-15T07:18:26;18.77;;;7.55;;
65096;SDS011;51686;46.758;4.356;2023-02-15T07:21:13;18.80;;;7.82;;
65096;SDS011;51686;46.758;4.356;2023-02-15T07:24:04;20.25;;;8.93;;
65096;SDS011;51686;46.758;4.356;2023-02-15T07:26:51;17.75;;;7.80;;
65096;SDS011;51686;46.758;4.356;2023-02-15T07:29:38;16.73;;;7.93;;
65096;SDS011;51686;46.758;4.356;2023-02-15T07:32:27;18.15;;;7.50;;
65096;SDS011;51686;46.758;4.356;2023-02-15T07:35:15;18.90;;;8.40;;
65096;SDS011;51686;46.758;4.356;2023-02-15T07:38:01;19.27;;;8.10;;
65096;SDS011;51686;46.758;4.356;2023-02-15T07:40:48;15.52;;;7.18;;
65096;SDS011;51686;46.758;4.356;2023-02-15T07:43:38;18.58;;;7.80;;
65096;SDS011;51686;46.758;4.356;2023-02-15T07:46:27;19.00;;;8.05;;
65096;SDS011;51686;46.758;4.356;2023-02-15T07:49:19;17.63;;;7.45;;
65096;SDS011;51686;46.758;4.356;2023-02-15T07:52:08;16.95;;;7.38;;
65096;SDS011;51686;46.758;4.356;2023-02-15T07:54:55;17.80;;;7.35;;
65096;SDS011;51686;46.758;4.356;2023-02-15T07:57:48;20.20;;;8.40;;
65096;SDS011;51686;46.758;4.356;2023-02-15T08:00:36;18.45;;;7.72;;
65096;SDS011;51686;46.758;4.356;2023-02-15T08:03:42;18.02;;;7.75;;
65096;SDS011;51686;46.758;4.356;2023-02-15T08:06:32;17.42;;;7.47;;
65096;SDS011;51686;46.758;4.356;2023-02-15T08:09:23;17.60;;;8.23;;
65096;SDS011;51686;46.758;4.356;2023-02-15T08:12:10;18.15;;;7.43;;
65096;SDS011;51686;46.758;4.356;2023-02-15T08:14:57;18.75;;;7.57;;
65096;SDS011;51686;46.758;4.356;2023-02-15T08:17:43;16.73;;;7.32;;
65096;SDS011;51686;46.758;4.356;2023-02-15T08:20:30;17.67;;;7.45;;
65096;SDS011;51686;46.758;4.356;2023-02-15T08:23:17;16.23;;;7.05;;
65096;SDS011;51686;46.758;4.356;2023-02-15T08:26:04;18.52;;;7.75;;
65096;SDS011;51686;46.758;4.356;2023-02-15T08:28:51;16.63;;;7.10;;
65096;SDS011;51686;46.758;4.356;2023-02-15T08:31:38;17.45;;;7.25;;
65096;SDS011;51686;46.758;4.356;2023-02-15T08:34:28;19.25;;;8.00;;
65096;SDS011;51686;46.758;4.356;2023-02-15T08:37:20;17.38;;;7.15;;
65096;SDS011;51686;46.758;4.356;2023-02-15T08:40:07;16.67;;;7.22;;
65096;SDS011;51686;46.758;4.356;2023-02-15T08:42:54;18.67;;;7.15;;
65096;SDS011;51686;46.758;4.356;2023-02-15T08:45:41;18.02;;;7.38;;
65096;SDS011;51686;46.758;4.356;2023-02-15T08:48:28;15.77;;;6.53;;
65096;SDS011;51686;46.758;4.356;2023-02-15T08:51:16;16.08;;;6.57;;
65096;SDS011;51686;46.758;4.356;2023-02-15T08:54:08;15.43;;;6.35;;
65096;SDS011;51686;46.758;4.356;2023-02-15T08:56:57;17.05;;;7.50;;
65096;SDS011;51686;46.758;4.356;2023-02-15T08:59:46;17.23;;;6.63;;
65096;SDS011;51686;46.758;4.356;2023-02-15T09:02:35;17.42;;;7.15;;
65096;SDS011;51686;46.758;4.356;2023-02-15T09:05:23;16.60;;;6.97;;
65096;SDS011;51686;46.758;4.356;2023-02-15T09:08:10;15.70;;;6.72;;
65096;SDS011;51686;46.758;4.356;2023-02-15T09:11:04;15.40;;;6.20;;
65096;SDS011;51686;46.758;4.356;2023-02-15T09:13:53;16.30;;;6.78;;
65096;SDS011;51686;46.758;4.356;2023-02-15T09:16:48;16.05;;;6.38;;
65096;SDS011;51686;46.758;4.356;2023-02-15T09:19:37;16.02;;;6.50;;
65096;SDS011;51686;46.758;4.356;2023-02-15T09:22:24;15.45;;;6.45;;
65096;SDS011;51686;46.758;4.356;2023-02-15T09:25:13;14.93;;;6.45;;
65096;SDS011;51686;46.758;4.356;2023-02-15T09:28:00;15.43;;;6.60;;
65096;SDS011;51686;46.758;4.356;2023-02-15T09:30:47;16.70;;;7.05;;
65096;SDS011;51686;46.758;4.356;2023-02-15T09:33:34;16.60;;;6.68;;
65096;SDS011;51686;46.758;4.356;2023-02-15T09:36:23;16.15;;;6.68;;
65096;SDS011;51686;46.758;4.356;2023-02-15T09:42:22;14.63;;;5.93;;
65096;SDS011;51686;46.758;4.356;2023-02-15T09:48:52;17.02;;;6.70;;
65096;SDS011;51686;46.758;4.356;2023-02-15T09:52:05;16.23;;;6.97;;
65096;SDS011;51686;46.758;4.356;2023-02-15T10:10:49;14.98;;;6.10;;
65096;SDS011;51686;46.758;4.356;2023-02-15T10:23:34;17.20;;;6.53;;
65096;SDS011;51686;46.758;4.356;2023-02-15T10:26:31;16.75;;;6.75;;
65096;SDS011;51686;46.758;4.356;2023-02-15T10:29:27;16.02;;;6.93;;
65096;SDS011;51686;46.758;4.356;2023-02-15T10:32:24;13.52;;;6.15;;
65096;SDS011;51686;46.758;4.356;2023-02-15T10:38:38;16.70;;;6.97;;
65096;SDS011;51686;46.758;4.356;2023-02-15T10:44:34;17.38;;;6.82;;
65096;SDS011;51686;46.758;4.356;2023-02-15T10:47:37;17.08;;;7.10;;
65096;SDS011;51686;46.758;4.356;2023-02-15T10:50:51;13.70;;;5.95;;
65096;SDS011;51686;46.758;4.356;2023-02-15T10:57:15;15.50;;;6.47;;
65096;SDS011;51686;46.758;4.356;2023-02-15T11:00:19;15.90;;;6.22;;
65096;SDS011;51686;46.758;4.356;2023-02-15T11:03:17;15.60;;;6.47;;
65096;SDS011;51686;46.758;4.356;2023-02-15T11:06:24;16.73;;;6.47;;
65096;SDS011;51686;46.758;4.356;2023-02-15T11:09:13;16.77;;;6.88;;
65096;SDS011;51686;46.758;4.356;2023-02-15T11:12:01;15.43;;;6.93;;
65096;SDS011;51686;46.758;4.356;2023-02-15T11:14:50;16.17;;;6.93;;
65096;SDS011;51686;46.758;4.356;2023-02-15T11:17:43;14.98;;;7.10;;
65096;SDS011;51686;46.758;4.356;2023-02-15T11:20:35;14.82;;;6.28;;
65096;SDS011;51686;46.758;4.356;2023-02-15T11:23:41;14.60;;;6.38;;
65096;SDS011;51686;46.758;4.356;2023-02-15T11:26:34;15.98;;;6.60;;
65096;SDS011;51686;46.758;4.356;2023-02-15T11:32:57;14.95;;;6.72;;
65096;SDS011;51686;46.758;4.356;2023-02-15T11:35:49;14.43;;;6.55;;
65096;SDS011;51686;46.758;4.356;2023-02-15T11:38:39;15.13;;;6.55;;
65096;SDS011;51686;46.758;4.356;2023-02-15T11:41:31;17.17;;;6.93;;
65096;SDS011;51686;46.758;4.356;2023-02-15T11:44:22;16.15;;;7.18;;
65096;SDS011;51686;46.758;4.356;2023-02-15T11:47:12;14.98;;;7.00;;
65096;SDS011;51686;46.758;4.356;2023-02-15T11:50:00;15.15;;;6.72;;
65096;SDS011;51686;46.758;4.356;2023-02-15T11:52:47;15.10;;;6.80;;
65096;SDS011;51686;46.758;4.356;2023-02-15T11:55:34;15.02;;;6.88;;
65096;SDS011;51686;46.758;4.356;2023-02-15T12:01:20;15.60;;;6.93;;
65096;SDS011;51686;46.758;4.356;2023-02-15T12:04:24;14.57;;;6.45;;
65096;SDS011;51686;46.758;4.356;2023-02-15T12:07:46;16.90;;;7.20;;
65096;SDS011;51686;46.758;4.356;2023-02-15T12:10:38;14.27;;;6.13;;
65096;SDS011;51686;46.758;4.356;2023-02-15T12:14:03;16.15;;;6.95;;
65096;SDS011;51686;46.758;4.356;2023-02-15T12:17:02;15.15;;;6.68;;
65096;SDS011;51686;46.758;4.356;2023-02-15T12:19:49;14.95;;;6.43;;
65096;SDS011;51686;46.758;4.356;2023-02-15T12:22:39;16.20;;;7.18;;
65096;SDS011;51686;46.758;4.356;2023-02-15T12:25:29;16.67;;;6.97;;
65096;SDS011;51686;46.758;4.356;2023-02-15T12:31:24;14.85;;;6.38;;
65096;SDS011;51686;46.758;4.356;2023-02-15T12:34:33;13.48;;;6.32;;
65096;SDS011;51686;46.758;4.356;2023-02-15T12:37:27;13.35;;;6.22;;
65096;SDS011;51686;46.758;4.356;2023-02-15T12:40:24;13.35;;;6.30;;
65096;SDS011;51686;46.758;4.356;2023-02-15T12:43:27;13.90;;;5.75;;
65096;SDS011;51686;46.758;4.356;2023-02-15T12:46:25;15.95;;;6.95;;
65096;SDS011;51686;46.758;4.356;2023-02-15T12:49:25;14.45;;;5.72;;
65096;SDS011;51686;46.758;4.356;2023-02-15T12:55:26;14.05;;;6.95;;
65096;SDS011;51686;46.758;4.356;2023-02-15T12:58:19;13.00;;;6.28;;
65096;SDS011;51686;46.758;4.356;2023-02-15T13:04:03;13.93;;;6.50;;
65096;SDS011;51686;46.758;4.356;2023-02-15T13:06:52;15.15;;;6.95;;
65096;SDS011;51686;46.758;4.356;2023-02-15T13:09:40;13.68;;;6.18;;
65096;SDS011;51686;46.758;4.356;2023-02-15T13:12:27;14.73;;;6.75;;
65096;SDS011;51686;46.758;4.356;2023-02-15T13:15:24;14.52;;;6.90;;
65096;SDS011;51686;46.758;4.356;2023-02-15T13:18:34;13.43;;;6.45;;
65096;SDS011;51686;46.758;4.356;2023-02-15T13:21:33;14.27;;;6.43;;
65096;SDS011;51686;46.758;4.356;2023-02-15T13:24:29;12.93;;;6.18;;
65096;SDS011;51686;46.758;4.356;2023-02-15T13:27:28;14.63;;;6.72;;
65096;SDS011;51686;46.758;4.356;2023-02-15T13:30:24;14.80;;;6.38;;
65096;SDS011;51686;46.758;4.356;2023-02-15T13:36:15;15.48;;;6.43;;
65096;SDS011;51686;46.758;4.356;2023-02-15T13:42:05;15.25;;;7.18;;
65096;SDS011;51686;46.758;4.356;2023-02-15T13:55:01;15.05;;;7.18;;
65096;SDS011;51686;46.758;4.356;2023-02-15T14:01:14;15.05;;;7.75;;
65096;SDS011;51686;46.758;4.356;2023-02-15T14:07:25;16.00;;;7.20;;
65096;SDS011;51686;46.758;4.356;2023-02-15T14:17:01;16.40;;;7.28;;
65096;SDS011;51686;46.758;4.356;2023-02-15T14:20:17;16.02;;;7.47;;
65096;SDS011;51686;46.758;4.356;2023-02-15T14:26:14;17.50;;;8.48;;
65096;SDS011;51686;46.758;4.356;2023-02-15T14:32:08;17.05;;;8.20;;
65096;SDS011;51686;46.758;4.356;2023-02-15T14:35:04;15.52;;;7.25;;
65096;SDS011;51686;46.758;4.356;2023-02-15T14:44:06;15.32;;;7.47;;
65096;SDS011;51686;46.758;4.356;2023-02-15T14:47:06;18.10;;;7.82;;
65096;SDS011;51686;46.758;4.356;2023-02-15T14:49:57;16.90;;;7.85;;
65096;SDS011;51686;46.758;4.356;2023-02-15T15:04:59;16.95;;;8.30;;
65096;SDS011;51686;46.758;4.356;2023-02-15T15:07:52;18.48;;;8.70;;
65096;SDS011;51686;46.758;4.356;2023-02-15T15:10:44;17.40;;;7.95;;
65096;SDS011;51686;46.758;4.356;2023-02-15T15:16:30;17.40;;;8.23;;
65096;SDS011;51686;46.758;4.356;2023-02-15T15:22:37;17.95;;;8.38;;
65096;SDS011;51686;46.758;4.356;2023-02-15T15:31:35;18.33;;;8.63;;
65096;SDS011;51686;46.758;4.356;2023-02-15T15:34:37;18.88;;;8.55;;
65096;SDS011;51686;46.758;4.356;2023-02-15T15:37:51;18.40;;;8.40;;
65096;SDS011;51686;46.758;4.356;2023-02-15T15:48:02;17.98;;;8.30;;
65096;SDS011;51686;46.758;4.356;2023-02-15T15:50:53;19.42;;;9.15;;
65096;SDS011;51686;46.758;4.356;2023-02-15T15:53:44;16.23;;;8.32;;
65096;SDS011;51686;46.758;4.356;2023-02-15T15:56:35;17.60;;;7.90;;
65096;SDS011;51686;46.758;4.356;2023-02-15T15:59:26;16.92;;;7.57;;
65096;SDS011;51686;46.758;4.356;2023-02-15T16:02:15;16.67;;;7.93;;
65096;SDS011;51686;46.758;4.356;2023-02-15T16:05:06;15.13;;;7.13;;
65096;SDS011;51686;46.758;4.356;2023-02-15T16:07:55;15.00;;;7.50;;
65096;SDS011;51686;46.758;4.356;2023-02-15T16:10:42;16.52;;;7.40;;
65096;SDS011;51686;46.758;4.356;2023-02-15T16:13:29;14.80;;;7.30;;
65096;SDS011;51686;46.758;4.356;2023-02-15T16:16:19;14.77;;;6.85;;
65096;SDS011;51686;46.758;4.356;2023-02-15T16:19:16;16.10;;;7.80;;
65096;SDS011;51686;46.758;4.356;2023-02-15T16:22:14;14.57;;;7.43;;
65096;SDS011;51686;46.758;4.356;2023-02-15T16:25:18;16.10;;;7.47;;
65096;SDS011;51686;46.758;4.356;2023-02-15T16:28:12;16.45;;;7.88;;
65096;SDS011;51686;46.758;4.356;2023-02-15T16:31:12;17.35;;;7.85;;
65096;SDS011;51686;46.758;4.356;2023-02-15T16:34:07;14.52;;;6.18;;
65096;SDS011;51686;46.758;4.356;2023-02-15T16:37:15;15.68;;;7.25;;
65096;SDS011;51686;46.758;4.356;2023-02-15T16:40:03;17.00;;;7.65;;
65096;SDS011;51686;46.758;4.356;2023-02-15T16:42:51;16.00;;;7.28;;
65096;SDS011;51686;46.758;4.356;2023-02-15T16:48:27;16.42;;;7.70;;
65096;SDS011;51686;46.758;4.356;2023-02-15T16:51:21;16.33;;;7.22;;
65096;SDS011;51686;46.758;4.356;2023-02-15T16:54:15;16.45;;;7.13;;
65096;SDS011;51686;46.758;4.356;2023-02-15T16:57:05;16.38;;;7.65;;
65096;SDS011;51686;46.758;4.356;2023-02-15T16:59:52;15.95;;;7.38;;
65096;SDS011;51686;46.758;4.356;2023-02-15T17:02:40;16.03;;;7.53;;
65096;SDS011;51686;46.758;4.356;2023-02-15T17:05:43;15.00;;;7.30;;
65096;SDS011;51686;46.758;4.356;2023-02-15T17:08:32;16.40;;;7.57;;
65096;SDS011;51686;46.758;4.356;2023-02-15T17:11:20;16.08;;;7.40;;
65096;SDS011;51686;46.758;4.356;2023-02-15T17:17:02;16.40;;;7.68;;
65096;SDS011;51686;46.758;4.356;2023-02-15T17:19:53;15.88;;;7.65;;
65096;SDS011;51686;46.758;4.356;2023-02-15T17:22:41;16.75;;;7.40;;
65096;SDS011;51686;46.758;4.356;2023-02-15T17:25:40;16.75;;;7.80;;
65096;SDS011;51686;46.758;4.356;2023-02-15T17:28:29;16.73;;;7.63;;
65096;SDS011;51686;46.758;4.356;2023-02-15T17:31:20;17.05;;;8.02;;
65096;SDS011;51686;46.758;4.356;2023-02-15T17:34:09;16.60;;;8.02;;
65096;SDS011;51686;46.758;4.356;2023-02-15T17:37:32;15.55;;;7.63;;
65096;SDS011;51686;46.758;4.356;2023-02-15T17:40:31;17.17;;;8.73;;
65096;SDS011;51686;46.758;4.356;2023-02-15T17:43:22;16.67;;;8.20;;
65096;SDS011;51686;46.758;4.356;2023-02-15T17:46:11;17.38;;;8.13;;
65096;SDS011;51686;46.758;4.356;2023-02-15T17:49:01;17.48;;;8.65;;
65096;SDS011;51686;46.758;4.356;2023-02-15T17:51:52;15.82;;;7.70;;
65096;SDS011;51686;46.758;4.356;2023-02-15T17:54:39;17.80;;;8.73;;
65096;SDS011;51686;46.758;4.356;2023-02-15T17:57:48;17.45;;;7.95;;
65096;SDS011;51686;46.758;4.356;2023-02-15T18:00:43;17.67;;;8.07;;
65096;SDS011;51686;46.758;4.356;2023-02-15T18:03:51;19.65;;;8.75;;
65096;SDS011;51686;46.758;4.356;2023-02-15T18:07:00;17.30;;;8.40;;
65096;SDS011;51686;46.758;4.356;2023-02-15T18:10:13;16.02;;;8.18;;
65096;SDS011;51686;46.758;4.356;2023-02-15T18:13:22;17.92;;;8.43;;
65096;SDS011;51686;46.758;4.356;2023-02-15T18:16:13;19.15;;;8.98;;
65096;SDS011;51686;46.758;4.356;2023-02-15T18:19:02;16.75;;;8.32;;
65096;SDS011;51686;46.758;4.356;2023-02-15T18:21:57;16.75;;;8.30;;
65096;SDS011;51686;46.758;4.356;2023-02-15T18:24:44;19.20;;;8.88;;
65096;SDS011;51686;46.758;4.356;2023-02-15T18:27:35;17.88;;;8.27;;
65096;SDS011;51686;46.758;4.356;2023-02-15T18:30:22;17.55;;;8.57;;
65096;SDS011;51686;46.758;4.356;2023-02-15T18:33:24;18.13;;;9.05;;
65096;SDS011;51686;46.758;4.356;2023-02-15T18:36:26;18.13;;;8.25;;
65096;SDS011;51686;46.758;4.356;2023-02-15T18:39:33;16.63;;;7.80;;
65096;SDS011;51686;46.758;4.356;2023-02-15T18:42:27;18.50;;;8.52;;
65096;SDS011;51686;46.758;4.356;2023-02-15T18:45:25;17.75;;;8.35;;
65096;SDS011;51686;46.758;4.356;2023-02-15T18:48:16;19.52;;;8.88;;
65096;SDS011;51686;46.758;4.356;2023-02-15T18:51:03;17.45;;;8.20;;
65096;SDS011;51686;46.758;4.356;2023-02-15T18:53:53;18.80;;;8.80;;
65096;SDS011;51686;46.758;4.356;2023-02-15T18:56:40;17.38;;;8.52;;
65096;SDS011;51686;46.758;4.356;2023-02-15T18:59:27;20.70;;;9.23;;
65096;SDS011;51686;46.758;4.356;2023-02-15T19:02:16;18.55;;;9.55;;
65096;SDS011;51686;46.758;4.356;2023-02-15T19:05:04;18.45;;;9.40;;
65096;SDS011;51686;46.758;4.356;2023-02-15T19:07:51;16.75;;;8.48;;
65096;SDS011;51686;46.758;4.356;2023-02-15T19:10:37;18.52;;;9.00;;
65096;SDS011;51686;46.758;4.356;2023-02-15T19:13:31;18.83;;;9.07;;
65096;SDS011;51686;46.758;4.356;2023-02-15T19:19:13;21.35;;;10.43;;
65096;SDS011;51686;46.758;4.356;2023-02-15T19:22:01;18.77;;;9.07;;
65096;SDS011;51686;46.758;4.356;2023-02-15T19:24:49;18.92;;;8.85;;
65096;SDS011;51686;46.758;4.356;2023-02-15T19:27:37;18.92;;;9.82;;
65096;SDS011;51686;46.758;4.356;2023-02-15T19:30:25;18.98;;;9.05;;
65096;SDS011;51686;46.758;4.356;2023-02-15T19:33:16;20.05;;;9.30;;
65096;SDS011;51686;46.758;4.356;2023-02-15T19:36:12;21.10;;;9.65;;
65096;SDS011;51686;46.758;4.356;2023-02-15T19:39:02;19.95;;;9.32;;
65096;SDS011;51686;46.758;4.356;2023-02-15T19:41:49;20.48;;;9.43;;
65096;SDS011;51686;46.758;4.356;2023-02-15T19:44:37;19.92;;;9.52;;
65096;SDS011;51686;46.758;4.356;2023-02-15T19:47:29;19.08;;;9.60;;
65096;SDS011;51686;46.758;4.356;2023-02-15T19:50:19;21.70;;;10.40;;
65096;SDS011;51686;46.758;4.356;2023-02-15T19:53:12;20.73;;;10.75;;
65096;SDS011;51686;46.758;4.356;2023-02-15T19:56:12;20.27;;;9.65;;
65096;SDS011;51686;46.758;4.356;2023-02-15T19:59:30;18.73;;;9.52;;
65096;SDS011;51686;46.758;4.356;2023-02-15T20:02:16;20.27;;;9.55;;
65096;SDS011;51686;46.758;4.356;2023-02-15T20:05:05;21.20;;;10.73;;
65096;SDS011;51686;46.758;4.356;2023-02-15T20:07:53;23.25;;;10.68;;
65096;SDS011;51686;46.758;4.356;2023-02-15T20:10:40;20.48;;;10.07;;
65096;SDS011;51686;46.758;4.356;2023-02-15T20:13:27;22.08;;;10.65;;
65096;SDS011;51686;46.758;4.356;2023-02-15T20:16:14;22.85;;;10.70;;
65096;SDS011;51686;46.758;4.356;2023-02-15T20:19:01;20.48;;;10.15;;
65096;SDS011;51686;46.758;4.356;2023-02-15T20:21:48;21.33;;;10.27;;